Terminal Aerodrome Forecast
Issued by NWS

Current Version | Previous Version | Text Only | Print | Product List | Glossary On
Versions: 1 2 3 4 5 6 7 8 9 10 11 12 13 14 15 16 17 18 19 20 21 22 23 24
787
FTUS46 KPDT 192340
TAFALW
TAF
KALW 192340Z 2000/2024 11006KT P6SM BKN060
     FM200600 14005KT P6SM SCT060
     FM201300 16006KT P6SM BKN050
     FM201700 19005KT P6SM SCT120 BKN150
     FM202100 VRB05KT P6SM BKN100 OVC140=

USA.gov is the U.S. government's official web portal to all federal, state and local government web resources and services.